Time;durP1;ratioP1;P1;durP2;ratioP2;P2;SDS_P1;SDS_P2;PMS_P1;PMS_P2;Temp;Humidity;BMP_temperature;BMP_pressure;BME280_temperature;BME280_humidity;BME280_pressure;Samples;Min_cycle;Max_cycle;Signal;HPM_P1;HPM_P2
2024/01/27 00:01:01;;;;;;;23.88;7.57;;;;;;;2.28;100.00;103331.56;4998827;28;20056;-66
2024/01/27 00:03:26;;;;;;;23.30;7.97;;;;;;;2.31;100.00;103328.03;5015780;28;20055;-65
2024/01/27 00:05:52;;;;;;;24.90;7.63;;;;;;;2.36;100.00;103334.25;5019698;28;20026;-65
2024/01/27 00:08:17;;;;;;;27.65;8.77;;;;;;;2.39;100.00;103324.50;4999479;28;20093;-65
2024/01/27 00:10:45;;;;;;;27.73;8.50;;;;;;;2.41;100.00;103322.72;4996997;28;20025;-69
2024/01/27 00:13:11;;;;;;;23.33;6.85;;;;;;;2.44;100.00;103311.25;4995586;28;20105;-69
2024/01/27 00:15:36;;;;;;;22.15;6.60;;;;;;;2.41;100.00;103316.56;5012858;28;20467;-69
2024/01/27 00:18:02;;;;;;;27.30;8.38;;;;;;;2.33;100.00;103313.91;5018170;28;20025;-69
2024/01/27 00:20:27;;;;;;;23.42;7.55;;;;;;;2.30;100.00;103299.72;5015160;28;20610;-68
2024/01/27 00:22:52;;;;;;;20.42;7.05;;;;;;;2.26;100.00;103306.81;4997225;28;20021;-69
2024/01/27 00:25:18;;;;;;;21.42;6.97;;;;;;;2.23;100.00;103312.13;4994508;28;20022;-68
2024/01/27 00:27:43;;;;;;;23.17;6.97;;;;;;;2.19;100.00;103310.34;5012144;28;20069;-68
2024/01/27 00:30:11;;;;;;;18.08;6.40;;;;;;;2.12;100.00;103308.56;5012246;28;20026;-69
2024/01/27 00:32:37;;;;;;;19.38;6.13;;;;;;;2.08;100.00;103310.31;5012209;28;20105;-69
2024/01/27 00:35:02;;;;;;;22.52;7.57;;;;;;;2.02;100.00;103316.50;4996798;28;20579;-68
2024/01/27 00:37:28;;;;;;;19.23;6.60;;;;;;;2.02;100.00;103323.56;4995905;28;20064;-68
2024/01/27 00:39:53;;;;;;;22.33;6.38;;;;;;;2.00;100.00;103326.19;5011559;28;20021;-69
2024/01/27 00:42:23;;;;;;;22.27;8.15;;;;;;;2.06;100.00;103330.66;5006436;28;20061;-69
2024/01/27 00:44:48;;;;;;;;;;;;;;;2.15;100.00;103328.00;4998211;28;20028;-68
2024/01/27 00:47:14;;;;;;;31.08;8.55;;;;;;;2.07;100.00;103333.28;5008354;28;19917;-69
2024/01/27 00:49:39;;;;;;;25.95;7.30;;;;;;;2.05;100.00;103332.41;5011832;28;20028;-68
2024/01/27 00:52:05;;;;;;;20.15;7.03;;;;;;;2.03;100.00;103331.50;4994880;28;20117;-69
2024/01/27 00:54:30;;;;;;;22.52;6.88;;;;;;;1.97;100.00;103328.84;5009812;28;20033;-69
2024/01/27 00:56:55;;;;;;;23.10;6.40;;;;;;;2.00;100.00;103327.97;5018144;28;20063;-69
2024/01/27 00:59:20;;;;;;;23.42;7.35;;;;;;;1.95;100.00;103335.94;5011109;28;20397;-69
2024/01/27 01:01:46;;;;;;;18.40;6.50;;;;;;;1.95;100.00;103327.97;5013734;28;20105;-69
2024/01/27 01:04:11;;;;;;;22.02;7.85;;;;;;;1.92;100.00;103333.28;4998851;28;20041;-68
2024/01/27 01:06:39;;;;;;;20.33;7.28;;;;;;;1.90;100.00;103335.94;5012317;28;20025;-68
2024/01/27 01:09:04;;;;;;;21.83;7.45;;;;;;;1.92;100.00;103330.63;5015592;28;20386;-69
2024/01/27 01:11:29;;;;;;;23.85;7.15;;;;;;;1.98;100.00;103340.38;5010026;28;20040;-69
2024/01/27 01:13:55;;;;;;;22.13;7.68;;;;;;;1.99;100.00;103350.06;5008406;28;20029;-69
2024/01/27 01:16:20;;;;;;;21.83;8.00;;;;;;;1.97;100.00;103339.47;5008339;28;20064;-68
2024/01/27 01:18:45;;;;;;;18.88;6.63;;;;;;;1.95;100.00;103338.59;5010703;28;20037;-69
2024/01/27 01:21:10;;;;;;;27.08;8.18;;;;;;;1.92;100.00;103343.88;5009402;28;20117;-68
2024/01/27 01:23:36;;;;;;;24.00;8.98;;;;;;;1.90;100.00;103341.22;4990728;28;20580;-68
2024/01/27 01:26:01;;;;;;;25.90;8.55;;;;;;;1.94;100.00;103342.09;5005923;28;20034;-69
2024/01/27 01:28:31;;;;;;;23.95;8.52;;;;;;;2.02;100.00;103334.16;5008598;28;20418;-69
2024/01/27 01:30:56;;;;;;;24.63;8.05;;;;;;;2.03;100.00;103331.50;5005680;28;20022;-68
2024/01/27 01:33:22;;;;;;;22.33;8.00;;;;;;;2.04;100.00;103330.63;5008854;28;21062;-68
2024/01/27 01:35:50;;;;;;;22.63;7.40;;;;;;;2.05;100.00;103337.72;5009513;28;20318;-69
2024/01/27 01:38:15;;;;;;;21.65;8.98;;;;;;;2.07;100.00;103335.94;5008941;28;20032;-68
2024/01/27 01:40:40;;;;;;;25.05;7.55;;;;;;;2.05;100.00;103337.72;4992754;28;20026;-68
2024/01/27 01:43:11;;;;;;;23.13;7.20;;;;;;;2.07;100.00;103340.38;5011445;28;20029;-68
2024/01/27 01:45:36;;;;;;;24.35;8.80;;;;;;;2.04;100.00;103338.59;4990367;28;20030;-68
2024/01/27 01:48:02;;;;;;;25.25;7.15;;;;;;;2.04;100.00;103335.94;5010153;28;20057;-68
2024/01/27 01:50:27;;;;;;;24.10;8.32;;;;;;;2.07;100.00;103341.25;5008222;28;20030;-68
2024/01/27 01:52:53;;;;;;;29.83;8.65;;;;;;;2.10;100.00;103351.00;5007767;28;20101;-68
2024/01/27 01:55:19;;;;;;;22.90;7.70;;;;;;;2.05;100.00;103343.03;5010134;28;20053;-68
2024/01/27 01:57:44;;;;;;;20.65;7.78;;;;;;;2.08;100.00;103350.13;4989683;28;20064;-68
2024/01/27 02:00:10;;;;;;;25.75;7.95;;;;;;;2.08;100.00;103350.13;5006172;28;20188;-67
2024/01/27 02:02:36;;;;;;;22.77;7.45;;;;;;;2.00;100.00;103344.78;5006852;28;20026;-68
2024/01/27 02:05:01;;;;;;;19.88;7.57;;;;;;;1.97;100.00;103347.41;5008824;28;20424;-68
2024/01/27 02:07:27;;;;;;;24.60;8.20;;;;;;;1.96;100.00;103339.47;5009692;28;20063;-68
2024/01/27 02:09:52;;;;;;;24.63;8.00;;;;;;;1.99;100.00;103344.78;4991808;28;20029;-68
2024/01/27 02:12:17;;;;;;;21.30;7.80;;;;;;;2.00;100.00;103344.78;5010835;28;20037;-69
2024/01/27 02:14:43;;;;;;;23.95;9.10;;;;;;;2.00;100.00;103344.78;5007959;28;20026;-68
2024/01/27 02:17:08;;;;;;;27.25;8.90;;;;;;;2.00;100.00;103350.06;5010029;28;20105;-68
2024/01/27 02:19:33;;;;;;;22.67;8.18;;;;;;;2.02;100.00;103350.06;4991941;28;20137;-68
2024/01/27 02:21:59;;;;;;;25.40;7.70;;;;;;;2.03;100.00;103344.78;5007881;28;20030;-68
2024/01/27 02:24:24;;;;;;;23.25;8.48;;;;;;;2.05;100.00;103356.28;5008161;28;20026;-68
2024/01/27 02:26:49;;;;;;;21.35;8.35;;;;;;;2.03;100.00;103346.56;4989888;28;20107;-68
2024/01/27 02:29:14;;;;;;;26.05;8.98;;;;;;;2.07;100.00;103346.56;4990328;28;20061;-68
2024/01/27 02:31:40;;;;;;;27.48;8.25;;;;;;;2.06;100.00;103354.50;5008726;28;20030;-68
2024/01/27 02:34:05;;;;;;;22.67;8.15;;;;;;;2.07;100.00;103345.69;5006304;28;20057;-68
2024/01/27 02:36:30;;;;;;;22.98;7.05;;;;;;;2.07;100.00;103346.56;4988190;28;20113;-68
2024/01/27 02:38:56;;;;;;;19.85;7.07;;;;;;;2.08;100.00;103344.81;5003405;28;20025;-67
2024/01/27 02:41:21;;;;;;;22.83;8.15;;;;;;;2.04;100.00;103354.50;5010951;28;20584;-68
2024/01/27 02:43:46;;;;;;;21.67;8.15;;;;;;;2.03;100.00;103358.03;5006828;28;20083;-68
2024/01/27 02:46:12;;;;;;;22.33;7.05;;;;;;;2.03;100.00;103355.38;4990736;28;20433;-68
2024/01/27 02:48:44;;;;;;;24.88;8.45;;;;;;;2.02;100.00;103348.34;4986211;28;20032;-67
2024/01/27 02:51:10;;;;;;;19.27;7.20;;;;;;;1.99;100.00;103358.94;5006710;28;20040;-67
2024/01/27 02:53:35;;;;;;;25.48;8.35;;;;;;;2.00;100.00;103354.50;5004561;28;20026;-67
2024/01/27 02:56:01;;;;;;;22.27;8.70;;;;;;;2.00;100.00;103346.53;5007095;28;20076;-68
2024/01/27 02:58:28;;;;;;;26.50;8.18;;;;;;;1.96;100.00;103352.72;5006900;28;20030;-68
2024/01/27 03:00:54;;;;;;;29.88;9.48;;;;;;;1.97;100.00;103359.81;5007527;28;20026;-68
2024/01/27 03:03:19;;;;;;;30.00;9.38;;;;;;;1.97;100.00;103350.06;4989438;28;20247;-68
2024/01/27 03:05:44;;;;;;;21.20;7.55;;;;;;;1.94;100.00;103339.47;5007029;28;20037;-68
2024/01/27 03:08:10;;;;;;;22.52;7.85;;;;;;;1.90;100.00;103349.19;4989329;28;20030;-68
2024/01/27 03:10:35;;;;;;;24.15;8.48;;;;;;;1.94;100.00;103352.72;5000917;28;20105;-68
2024/01/27 03:13:00;;;;;;;24.45;8.45;;;;;;;1.89;100.00;103350.06;5004536;28;20025;-68
2024/01/27 03:15:25;;;;;;;25.10;8.10;;;;;;;1.86;100.00;103347.41;5010411;28;20048;-68
2024/01/27 03:17:51;;;;;;;21.27;8.38;;;;;;;1.84;100.00;103358.88;5009330;28;20084;-68
2024/01/27 03:20:16;;;;;;;26.08;8.10;;;;;;;1.79;100.00;103352.66;5007284;28;20029;-68
2024/01/27 03:22:41;;;;;;;24.35;8.35;;;;;;;1.79;100.00;103357.94;5005925;28;20037;-68
2024/01/27 03:25:08;;;;;;;23.33;7.25;;;;;;;1.78;100.00;103351.78;5007157;28;20018;-68
2024/01/27 03:27:33;;;;;;;21.05;7.72;;;;;;;1.70;100.00;103354.41;5006138;28;20041;-68
2024/01/27 03:30:01;;;;;;;20.95;7.70;;;;;;;1.70;100.00;103362.34;5004263;28;20068;-68
2024/01/27 03:32:27;;;;;;;23.60;7.68;;;;;;;1.66;100.00;103359.69;5002210;28;20543;-67
2024/01/27 03:34:52;;;;;;;23.52;8.32;;;;;;;1.66;100.00;103355.25;5007304;28;20026;-68
2024/01/27 03:37:17;;;;;;;23.38;7.25;;;;;;;1.66;100.00;103363.22;4989150;28;20109;-68
2024/01/27 03:39:42;;;;;;;22.33;6.70;;;;;;;1.67;100.00;103359.69;4989615;28;20029;-67
2024/01/27 03:42:08;;;;;;;23.73;7.68;;;;;;;1.66;100.00;103365.00;5006796;28;20492;-68
2024/01/27 03:44:33;;;;;;;21.20;8.02;;;;;;;1.62;100.00;103369.38;4989479;28;20017;-68
2024/01/27 03:46:59;;;;;;;19.98;6.60;;;;;;;1.61;100.00;103364.97;5003941;28;20026;-67
2024/01/27 03:49:24;;;;;;;21.88;7.40;;;;;;;1.62;100.00;103361.41;5002661;28;20448;-68
2024/01/27 03:51:49;;;;;;;20.65;8.20;;;;;;;1.60;100.00;103356.97;5006738;28;20496;-67
2024/01/27 03:54:14;;;;;;;23.30;7.45;;;;;;;1.61;100.00;103349.06;5004863;28;20030;-68
2024/01/27 03:56:41;;;;;;;24.73;8.82;;;;;;;1.65;100.00;103356.13;5006757;28;20029;-67
2024/01/27 03:59:09;;;;;;;23.17;8.82;;;;;;;1.66;100.00;103352.59;5005445;28;20032;-67
2024/01/27 04:01:34;;;;;;;23.23;7.72;;;;;;;1.70;100.00;103359.72;5006699;28;20021;-68
2024/01/27 04:03:59;;;;;;;25.73;9.05;;;;;;;1.71;100.00;103361.50;4988325;28;20026;-67
2024/01/27 04:06:25;;;;;;;20.80;7.72;;;;;;;1.70;100.00;103358.84;5010087;28;20035;-67
2024/01/27 04:08:50;;;;;;;28.95;8.93;;;;;;;1.65;100.00;103365.84;5007004;28;20083;-67
2024/01/27 04:11:22;;;;;;;23.77;7.85;;;;;;;1.61;100.00;103359.66;4992170;28;20501;-68
2024/01/27 04:13:50;;;;;;;19.67;7.75;;;;;;;1.61;100.00;103369.38;4990792;28;20500;-68
2024/01/27 04:16:15;;;;;;;23.83;6.72;;;;;;;1.53;100.00;103366.69;4991387;28;20078;-67
2024/01/27 04:18:42;;;;;;;22.65;7.65;;;;;;;1.50;100.00;103362.25;5004957;28;20065;-67
2024/01/27 04:21:07;;;;;;;22.98;7.10;;;;;;;1.47;100.00;103374.63;5007840;28;20022;-68
2024/01/27 04:23:33;;;;;;;20.13;6.70;;;;;;;1.43;100.00;103364.88;5010068;28;20029;-68
2024/01/27 04:25:58;;;;;;;21.75;7.30;;;;;;;1.37;100.00;103373.66;5006863;28;20377;-67
2024/01/27 04:28:24;;;;;;;21.63;6.70;;;;;;;1.30;100.00;103366.56;4990370;28;20484;-68
2024/01/27 04:30:49;;;;;;;20.98;6.93;;;;;;;1.22;100.00;103371.81;4989852;28;20022;-68
2024/01/27 04:33:14;;;;;;;20.65;7.22;;;;;;;1.23;100.00;103373.59;5009339;28;20393;-68
2024/01/27 04:35:40;;;;;;;20.33;6.65;;;;;;;1.18;100.00;103368.25;5009685;28;20128;-68
2024/01/27 04:38:08;;;;;;;21.98;7.25;;;;;;;1.13;100.00;103374.38;5009598;28;20029;-68
2024/01/27 04:40:35;;;;;;;21.05;6.70;;;;;;;1.11;100.00;103366.41;5011373;28;20026;-67
2024/01/27 04:43:00;;;;;;;25.42;8.07;;;;;;;1.09;100.00;103373.47;4992366;28;20517;-67
2024/01/27 04:45:25;;;;;;;24.08;7.53;;;;;;;1.15;100.00;103381.47;5009473;28;20037;-68
2024/01/27 04:47:51;;;;;;;20.65;7.30;;;;;;;1.19;100.00;103377.09;4992259;28;20370;-67
2024/01/27 04:50:16;;;;;;;24.80;8.40;;;;;;;1.21;100.00;103376.19;5010839;28;20030;-67
2024/01/27 04:52:41;;;;;;;23.50;7.18;;;;;;;1.23;100.00;103373.59;5008691;28;20250;-68
2024/01/27 04:55:07;;;;;;;24.45;8.68;;;;;;;1.29;100.00;103368.31;4994475;28;20026;-68
2024/01/27 04:57:32;;;;;;;19.77;7.22;;;;;;;1.30;100.00;103375.38;4995312;28;20029;-68
2024/01/27 04:59:57;;;;;;;20.50;8.00;;;;;;;1.32;100.00;103364.81;4995402;28;20036;-69
2024/01/27 05:02:23;;;;;;;20.55;7.35;;;;;;;1.32;100.00;103365.69;5010680;28;20022;-69
2024/01/27 05:04:48;;;;;;;21.38;7.57;;;;;;;1.34;100.00;103363.94;5009202;28;20030;-69
2024/01/27 05:07:14;;;;;;;26.08;9.05;;;;;;;1.34;100.00;103365.69;5013725;28;20026;-69
2024/01/27 05:09:39;;;;;;;20.08;7.85;;;;;;;1.34;100.00;103369.22;5012734;28;20028;-69
2024/01/27 05:12:05;;;;;;;29.40;7.18;;;;;;;1.32;100.00;103370.13;5010988;28;20430;-68
2024/01/27 05:14:30;;;;;;;25.10;7.45;;;;;;;1.34;100.00;103369.22;4992199;28;20034;-69
2024/01/27 05:16:55;;;;;;;21.60;7.93;;;;;;;1.36;100.00;103370.13;5010615;28;20030;-68
2024/01/27 05:19:21;;;;;;;19.77;7.55;;;;;;;1.39;100.00;103374.53;5011200;28;20112;-68
2024/01/27 05:21:46;;;;;;;20.73;7.43;;;;;;;1.40;100.00;103371.03;4991459;28;20022;-68
2024/01/27 05:24:11;;;;;;;20.25;7.68;;;;;;;1.43;100.00;103375.47;5009588;28;20030;-68
2024/01/27 05:26:37;;;;;;;25.15;8.20;;;;;;;1.43;100.00;103378.13;4993818;28;20038;-69
2024/01/27 05:29:02;;;;;;;23.38;9.13;;;;;;;1.43;100.00;103376.34;5009635;28;20180;-68
2024/01/27 05:31:27;;;;;;;24.15;8.15;;;;;;;1.44;100.00;103378.13;5008997;28;20065;-69
2024/01/27 05:33:53;;;;;;;27.70;9.15;;;;;;;1.45;100.00;103371.06;5010501;28;20120;-69
2024/01/27 05:36:18;;;;;;;24.73;8.13;;;;;;;1.42;100.00;103374.59;5011007;28;20038;-69
2024/01/27 05:38:43;;;;;;;23.02;7.78;;;;;;;1.34;100.00;103363.94;5012194;28;20405;-68
2024/01/27 05:41:09;;;;;;;19.15;7.30;;;;;;;1.27;100.00;103364.75;5009972;28;20172;-68
2024/01/27 05:43:34;;;;;;;23.77;8.05;;;;;;;1.22;100.00;103353.28;4991591;28;20029;-68
2024/01/27 05:46:00;;;;;;;23.40;9.45;;;;;;;1.22;100.00;103353.28;5011452;28;20026;-68
2024/01/27 05:48:25;;;;;;;21.05;8.60;;;;;;;1.23;100.00;103347.09;5010458;28;20038;-69
2024/01/27 05:51:00;;;;;;;27.30;8.85;;;;;;;1.23;100.00;103347.09;5014712;28;20030;-69
2024/01/27 05:53:26;;;;;;;25.17;9.20;;;;;;;1.21;100.00;103351.47;5007269;28;20483;-68
2024/01/27 05:55:53;;;;;;;21.77;8.00;;;;;;;1.20;100.00;103347.06;5010924;28;20029;-69
2024/01/27 05:58:21;;;;;;;25.10;8.40;;;;;;;1.20;100.00;103344.41;5009501;28;20393;-68
2024/01/27 06:00:46;;;;;;;20.85;7.45;;;;;;;1.20;100.00;103350.59;5005673;28;20474;-68
2024/01/27 06:03:12;;;;;;;23.33;8.88;;;;;;;1.23;100.00;103355.06;5010003;28;20109;-68
2024/01/27 06:05:37;;;;;;;21.60;9.23;;;;;;;1.26;100.00;103368.31;4990701;28;20029;-67
2024/01/27 06:08:04;;;;;;;22.90;9.25;;;;;;;1.27;100.00;103353.28;5009979;28;20104;-68
2024/01/27 06:10:30;;;;;;;21.40;8.15;;;;;;;1.26;100.00;103347.13;4990410;28;20076;-68
2024/01/27 06:12:56;;;;;;;22.38;8.82;;;;;;;1.25;100.00;103344.47;5009179;28;20026;-67
2024/01/27 06:15:21;;;;;;;21.13;9.07;;;;;;;1.25;100.00;103350.63;5007113;28;20037;-67
2024/01/27 06:17:47;;;;;;;23.58;9.02;;;;;;;1.24;100.00;103343.56;4988834;28;20018;-67
2024/01/27 06:20:12;;;;;;;27.05;9.80;;;;;;;1.26;100.00;103346.22;4992919;28;20030;-67
2024/01/27 06:22:38;;;;;;;23.67;9.38;;;;;;;1.22;100.00;103346.19;4990579;28;20036;-67
2024/01/27 06:25:03;;;;;;;22.95;8.45;;;;;;;1.22;100.00;103340.91;4991987;28;20120;-67
2024/01/27 06:27:29;;;;;;;24.30;9.00;;;;;;;1.22;100.00;103346.19;4990786;28;20046;-67
2024/01/27 06:29:54;;;;;;;24.10;9.65;;;;;;;1.21;100.00;103360.31;5007559;28;20069;-67
2024/01/27 06:32:19;;;;;;;24.95;8.20;;;;;;;1.20;100.00;103363.84;4989840;28;20524;-68
2024/01/27 06:34:44;;;;;;;21.98;9.35;;;;;;;1.20;100.00;103352.34;5007846;28;20083;-67
2024/01/27 06:37:10;;;;;;;21.15;8.65;;;;;;;1.17;100.00;103347.94;4990870;28;20022;-67
2024/01/27 06:39:35;;;;;;;24.88;9.38;;;;;;;1.18;100.00;103354.13;5005920;28;20030;-67
2024/01/27 06:42:00;;;;;;;23.42;9.25;;;;;;;1.16;100.00;103369.13;4990647;28;20028;-67
2024/01/27 06:44:26;;;;;;;25.63;10.30;;;;;;;1.15;100.00;103362.06;5006866;28;20034;-68
2024/01/27 06:46:51;;;;;;;24.25;8.02;;;;;;;1.14;100.00;103369.13;5008005;28;20326;-67
2024/01/27 06:49:16;;;;;;;22.83;9.70;;;;;;;1.14;100.00;103368.22;4989525;28;20025;-67
2024/01/27 06:51:43;;;;;;;24.55;9.02;;;;;;;1.10;100.00;103372.63;4985474;28;20393;-67
2024/01/27 06:54:09;;;;;;;27.45;9.00;;;;;;;1.10;100.00;103372.63;5008483;28;20072;-67
2024/01/27 06:56:34;;;;;;;20.95;8.15;;;;;;;1.08;100.00;103389.38;5006795;28;20030;-68
2024/01/27 06:58:59;;;;;;;25.25;8.65;;;;;;;1.11;100.00;103392.03;5002368;28;20037;-67
2024/01/27 07:01:24;;;;;;;24.67;8.63;;;;;;;1.13;100.00;103400.88;5007925;28;20113;-68
2024/01/27 07:03:50;;;;;;;22.52;8.35;;;;;;;1.13;100.00;103395.56;4991100;28;20030;-67
2024/01/27 07:06:15;;;;;;;22.98;9.43;;;;;;;1.14;100.00;103394.69;5007484;28;20133;-67
2024/01/27 07:08:40;;;;;;;21.85;8.02;;;;;;;1.16;100.00;103393.84;5008556;28;20072;-67
2024/01/27 07:11:05;;;;;;;27.00;9.27;;;;;;;1.17;100.00;103405.31;5011584;28;20404;-67
2024/01/27 07:13:31;;;;;;;25.48;8.88;;;;;;;1.16;100.00;103404.44;5012239;28;20074;-65
2024/01/27 07:15:57;;;;;;;21.90;9.15;;;;;;;1.16;100.00;103404.44;5013970;28;20041;-66
2024/01/27 07:18:24;;;;;;;30.45;8.90;;;;;;;1.16;100.00;103395.63;5001069;28;20028;-65
2024/01/27 07:20:49;;;;;;;20.67;8.27;;;;;;;1.14;100.00;103397.34;4997204;28;20335;-65
2024/01/27 07:23:14;;;;;;;24.48;9.48;;;;;;;1.15;100.00;103410.59;5014407;28;20103;-67
2024/01/27 07:25:40;;;;;;;19.45;8.88;;;;;;;1.18;100.00;103407.09;4997171;28;20022;-65
2024/01/27 07:28:05;;;;;;;23.52;9.63;;;;;;;1.20;100.00;103406.25;5014045;28;20093;-65
2024/01/27 07:30:31;;;;;;;22.48;8.82;;;;;;;1.20;100.00;103405.34;5012421;28;20037;-65
2024/01/27 07:32:56;;;;;;;23.90;8.77;;;;;;;1.20;100.00;103405.34;5013208;28;20025;-65
2024/01/27 07:35:21;;;;;;;24.90;9.85;;;;;;;1.22;100.00;103408.91;5017577;28;20040;-65
2024/01/27 07:37:47;;;;;;;22.60;8.90;;;;;;;1.24;100.00;103412.44;5011193;28;20111;-65
2024/01/27 07:40:12;;;;;;;21.70;8.50;;;;;;;1.24;100.00;103408.91;5016329;28;20080;-65
2024/01/27 07:42:37;;;;;;;30.80;9.45;;;;;;;1.23;100.00;103408.03;5015091;28;20034;-65
2024/01/27 07:45:03;;;;;;;20.27;8.57;;;;;;;1.22;100.00;103409.78;5013545;28;20065;-65
2024/01/27 07:47:29;;;;;;;24.05;8.55;;;;;;;1.21;100.00;103408.00;5013597;28;20461;-65
2024/01/27 07:49:54;;;;;;;22.63;9.02;;;;;;;1.22;100.00;103414.19;4998269;28;20045;-66
2024/01/27 07:52:20;;;;;;;23.60;8.63;;;;;;;1.25;100.00;103416.00;4996201;28;20262;-65
2024/01/27 07:54:45;;;;;;;26.08;10.35;;;;;;;1.26;100.00;103418.66;5013012;28;20405;-66
2024/01/27 07:57:12;;;;;;;24.73;8.63;;;;;;;1.28;100.00;103421.31;5014988;28;20068;-65
2024/01/27 07:59:37;;;;;;;22.88;8.38;;;;;;;1.31;100.00;103424.84;5015417;28;20382;-65
2024/01/27 08:02:03;;;;;;;22.73;9.55;;;;;;;1.31;100.00;103422.19;5016956;28;20096;-65
2024/01/27 08:04:28;;;;;;;26.73;8.93;;;;;;;1.33;100.00;103420.47;5019901;28;20102;-65
2024/01/27 08:06:53;;;;;;;23.10;8.55;;;;;;;1.38;100.00;103415.19;4997602;28;20046;-66
2024/01/27 08:09:19;;;;;;;26.88;10.82;;;;;;;1.39;100.00;103414.28;5017620;28;20030;-65
2024/01/27 08:11:45;;;;;;;22.50;8.93;;;;;;;1.38;100.00;103401.94;5013742;28;20026;-66
2024/01/27 08:14:10;;;;;;;20.98;8.60;;;;;;;1.43;100.00;103399.31;5017346;28;20040;-65
2024/01/27 08:16:35;;;;;;;25.88;9.63;;;;;;;1.46;100.00;103413.47;5015836;28;20036;-65
2024/01/27 08:19:01;;;;;;;27.35;9.30;;;;;;;1.48;100.00;103413.47;5015312;28;20025;-65
2024/01/27 08:21:27;;;;;;;23.58;9.70;;;;;;;1.48;100.00;103411.72;5016748;28;20041;-65
2024/01/27 08:23:53;;;;;;;23.40;8.82;;;;;;;1.51;100.00;103401.13;5011089;28;20430;-68
2024/01/27 08:26:20;;;;;;;28.90;8.63;;;;;;;1.47;100.00;103402.00;4994429;28;20065;-69
2024/01/27 08:28:46;;;;;;;23.25;8.55;;;;;;;1.49;100.00;103402.00;5011439;28;20496;-68
2024/01/27 08:31:11;;;;;;;27.17;9.80;;;;;;;1.50;100.00;103394.06;4994372;28;20026;-69
2024/01/27 08:33:36;;;;;;;26.27;10.25;;;;;;;1.53;100.00;103399.38;5011190;28;20040;-69
2024/01/27 08:36:02;;;;;;;22.33;9.43;;;;;;;1.55;100.00;103397.63;5010589;28;20030;-69
2024/01/27 08:38:27;;;;;;;21.00;7.95;;;;;;;1.60;100.00;103405.59;5011598;28;20030;-68
2024/01/27 08:40:53;;;;;;;27.13;9.07;;;;;;;1.62;100.00;103402.97;4993309;28;20116;-69
2024/01/27 08:43:18;;;;;;;23.15;8.73;;;;;;;1.67;100.00;103410.06;4995840;28;20530;-68
2024/01/27 08:45:43;;;;;;;22.88;9.05;;;;;;;1.75;100.00;103407.44;5012167;28;20022;-68
2024/01/27 08:48:09;;;;;;;26.42;9.93;;;;;;;1.78;100.00;103410.09;5010754;28;20052;-68
2024/01/27 08:50:34;;;;;;;23.13;8.15;;;;;;;1.82;100.00;103417.19;5011917;28;20474;-68
2024/01/27 08:53:00;;;;;;;25.48;9.98;;;;;;;1.83;100.00;103418.06;5004490;28;20108;-69
2024/01/27 08:55:25;;;;;;;27.70;9.52;;;;;;;1.83;100.00;103412.78;5010707;28;20033;-68
2024/01/27 08:57:51;;;;;;;27.90;9.13;;;;;;;1.82;100.00;103416.31;4993040;28;20113;-68
2024/01/27 09:00:17;;;;;;;22.95;8.85;;;;;;;1.83;100.00;103418.06;5011173;28;20365;-68
2024/01/27 09:02:43;;;;;;;24.77;9.38;;;;;;;1.86;100.00;103424.28;4996569;28;20192;-68
2024/01/27 09:05:09;;;;;;;24.50;9.05;;;;;;;1.92;100.00;103424.31;5013939;28;20026;-68
2024/01/27 09:07:34;;;;;;;21.42;9.07;;;;;;;1.96;100.00;103425.19;5009082;28;20129;-68
2024/01/27 09:10:00;;;;;;;28.58;10.38;;;;;;;2.02;100.00;103429.66;4992545;28;20109;-68
2024/01/27 09:12:25;;;;;;;25.30;8.18;;;;;;;2.07;100.00;103420.84;4991784;28;20034;-68
2024/01/27 09:14:50;;;;;;;23.08;9.10;;;;;;;2.13;100.00;103432.38;5009606;28;20030;-68
2024/01/27 09:17:15;;;;;;;25.73;9.50;;;;;;;2.16;100.00;103425.28;5010802;28;20026;-68
2024/01/27 09:19:41;;;;;;;27.55;9.43;;;;;;;2.22;100.00;103432.38;5009730;28;20511;-68
2024/01/27 09:22:07;;;;;;;27.55;9.98;;;;;;;2.27;100.00;103436.84;5009114;28;20026;-68
2024/01/27 09:24:32;;;;;;;27.95;9.32;;;;;;;2.33;100.00;103435.97;5010889;28;20033;-68
2024/01/27 09:26:57;;;;;;;26.02;9.13;;;;;;;2.39;100.00;103437.75;4988217;28;20137;-68
2024/01/27 09:29:23;;;;;;;22.55;9.35;;;;;;;2.41;100.00;103442.16;4990357;28;20018;-68
2024/01/27 09:31:49;;;;;;;27.67;10.60;;;;;;;2.45;100.00;103446.59;4989858;28;20026;-68
2024/01/27 09:34:14;;;;;;;25.02;9.43;;;;;;;2.47;100.00;103451.03;4989675;28;20037;-68
2024/01/27 09:36:39;;;;;;;26.13;10.82;;;;;;;2.53;100.00;103459.88;4985877;28;20022;-67
2024/01/27 09:39:04;;;;;;;27.00;9.52;;;;;;;2.54;100.00;103464.31;4989137;28;20046;-67
2024/01/27 09:41:33;;;;;;;21.90;8.77;;;;;;;2.57;100.00;103464.34;4988003;28;20025;-67
2024/01/27 09:44:02;;;;;;;30.90;9.60;;;;;;;2.64;100.00;103465.25;4989076;28;20026;-67
2024/01/27 09:46:29;;;;;;;27.08;8.75;;;;;;;2.71;100.00;103468.78;4989123;28;20176;-67
2024/01/27 09:48:56;;;;;;;22.25;8.85;;;;;;;2.78;100.00;103471.47;4985282;28;20064;-68
2024/01/27 09:51:22;;;;;;;24.90;8.85;;;;;;;2.84;100.00;103464.38;4987686;28;20082;-67
2024/01/27 09:53:47;;;;;;;26.50;9.13;;;;;;;2.87;100.00;103465.28;4985829;28;20029;-68
2024/01/27 09:56:17;;;;;;;25.08;9.13;;;;;;;2.93;100.00;103467.06;4989323;28;20407;-68
2024/01/27 09:58:44;;;;;;;25.23;9.25;;;;;;;2.97;100.00;103475.03;4985839;28;20022;-67
2024/01/27 10:01:10;;;;;;;24.38;9.65;;;;;;;3.04;100.00;103475.91;4988153;28;20109;-67
2024/01/27 10:03:38;;;;;;;26.23;10.20;;;;;;;3.07;100.00;103489.19;4986943;28;20108;-67
2024/01/27 10:06:07;;;;;;;25.58;9.93;;;;;;;3.16;100.00;103483.00;4989059;28;20484;-68
2024/01/27 10:08:33;;;;;;;23.92;9.95;;;;;;;3.22;100.00;103483.03;4982269;28;20400;-67
2024/01/27 10:10:58;;;;;;;25.17;9.35;;;;;;;3.27;100.00;103481.25;4986094;28;20034;-67
2024/01/27 10:13:27;;;;;;;23.60;9.40;;;;;;;3.33;100.00;103488.31;4987942;28;20022;-67
2024/01/27 10:16:05;;;;;;;23.20;8.85;;;;;;;3.39;100.00;103488.31;4989851;28;20026;-67
2024/01/27 10:18:31;;;;;;;26.33;8.15;;;;;;;3.46;100.00;103481.25;5001708;28;20041;-67
2024/01/27 10:20:57;;;;;;;28.25;8.68;;;;;;;3.48;100.00;103488.34;4988364;28;20351;-67
2024/01/27 10:23:23;;;;;;;24.02;9.40;;;;;;;3.55;100.00;103485.66;4988274;28;20018;-67
2024/01/27 10:25:49;;;;;;;20.73;8.25;;;;;;;3.60;100.00;103499.81;4987809;28;20026;-67
2024/01/27 10:28:15;;;;;;;26.02;9.77;;;;;;;3.65;100.00;103487.41;4998997;28;20033;-67
2024/01/27 10:30:40;;;;;;;27.10;8.77;;;;;;;3.71;100.00;103487.41;5008462;28;20041;-67
2024/01/27 10:33:08;;;;;;;23.85;8.98;;;;;;;3.77;100.00;103487.38;4998043;28;20068;-67
2024/01/27 10:35:34;;;;;;;29.50;10.90;;;;;;;3.83;100.00;103495.34;5007909;28;20456;-69
2024/01/27 10:37:59;;;;;;;25.02;8.57;;;;;;;3.90;100.00;103490.03;5006107;28;20033;-67
2024/01/27 10:40:25;;;;;;;34.53;9.45;;;;;;;3.96;100.00;103482.88;5007333;28;20026;-68
2024/01/27 10:43:00;;;;;;;30.80;9.55;;;;;;;4.03;100.00;103489.97;5007348;28;20022;-68
2024/01/27 10:45:27;;;;;;;28.05;9.70;;;;;;;4.10;100.00;103489.94;4991608;28;20033;-68
2024/01/27 10:47:56;;;;;;;24.33;8.13;;;;;;;4.15;100.00;103486.38;5007338;28;20576;-68
2024/01/27 10:50:23;;;;;;;29.45;9.35;;;;;;;4.22;100.00;103494.31;5009256;28;20372;-68
2024/01/27 10:52:51;;;;;;;30.58;9.60;;;;;;;4.26;100.00;103485.44;4992584;28;20033;-68
2024/01/27 10:55:17;;;;;;;25.63;8.45;;;;;;;4.31;100.00;103484.53;4991286;28;20021;-69
2024/01/27 10:57:45;;;;;;;26.05;8.32;;;;;;;4.36;100.00;103482.75;5009278;28;20025;-68
2024/01/27 11:00:11;;;;;;;26.60;8.55;;;;;;;4.42;100.00;103473.81;4991468;28;20080;-69
2024/01/27 11:02:36;;;;;;;25.25;8.23;;;;;;;4.47;100.00;103465.84;5007504;28;20109;-69
2024/01/27 11:05:03;;;;;;;28.65;8.70;;;;;;;4.51;100.00;103465.81;5008667;28;20121;-68
2024/01/27 11:07:32;;;;;;;26.95;8.07;;;;;;;4.57;100.00;103461.31;5008584;28;20030;-68
2024/01/27 11:09:57;;;;;;;24.55;8.02;;;;;;;4.64;100.00;103458.63;5008806;28;20109;-69